Terminal Aerodrome Forecast
Issued by NWS Louisville, KY

Home | Current Version | Previous Version | Text Only | Print | Product List | Glossary On
Versions: 1 2 3 4 5 6 7 8 9 10 11 12 13 14 15
000
FTUS43 KLMK 170400 AAB
TAFLEX
TAF AMD
KLEX 170422Z 1704/1724 19007KT P6SM SCT026
      TEMPO 1704/1706 BKN026
     FM170600 18008KT P6SM FEW026 FEW250
     FM171400 24012G18KT P6SM SCT040=

USA.gov is the U.S. government's official web portal to all federal, state and local government web resources and services.